sensor_id;sensor_type;location;lat;lon;timestamp;pressure;altitude;pressure_sealevel;temperature;humidity
65716;BME280;63484;52.054;8.518;2023-01-09T00:00:06;98580.81;;;8.90;78.47
65716;BME280;63484;52.054;8.518;2023-01-09T00:05:07;98580.09;;;8.88;78.78
65716;BME280;63484;52.054;8.518;2023-01-09T00:10:09;98570.75;;;8.95;78.57
65716;BME280;63484;52.054;8.518;2023-01-09T00:15:10;98567.31;;;9.04;78.24
65716;BME280;63484;52.054;8.518;2023-01-09T00:20:11;98571.03;;;9.01;78.56
65716;BME280;63484;52.054;8.518;2023-01-09T00:25:11;98551.72;;;9.12;78.38
65716;BME280;63484;52.054;8.518;2023-01-09T00:30:12;98549.66;;;9.06;80.24
65716;BME280;63484;52.054;8.518;2023-01-09T00:35:15;98545.09;;;9.08;81.53
65716;BME280;63484;52.054;8.518;2023-01-09T00:40:17;98540.69;;;8.99;83.48
65716;BME280;63484;52.054;8.518;2023-01-09T00:45:21;98544.56;;;8.95;84.89
65716;BME280;63484;52.054;8.518;2023-01-09T00:50:30;98545.88;;;8.80;85.69
65716;BME280;63484;52.054;8.518;2023-01-09T00:55:33;98544.22;;;8.79;85.84
65716;BME280;63484;52.054;8.518;2023-01-09T01:00:34;98549.06;;;8.74;86.56
65716;BME280;63484;52.054;8.518;2023-01-09T01:05:34;98542.84;;;8.75;86.10
65716;BME280;63484;52.054;8.518;2023-01-09T01:10:53;98535.13;;;8.83;85.27
65716;BME280;63484;52.054;8.518;2023-01-09T01:15:53;98539.69;;;8.81;85.14
65716;BME280;63484;52.054;8.518;2023-01-09T01:20:54;98548.53;;;8.89;84.49
65716;BME280;63484;52.054;8.518;2023-01-09T01:25:54;98546.88;;;8.88;84.94
65716;BME280;63484;52.054;8.518;2023-01-09T01:30:54;98548.13;;;8.94;84.14
65716;BME280;63484;52.054;8.518;2023-01-09T01:36:06;98559.41;;;8.85;85.37
65716;BME280;63484;52.054;8.518;2023-01-09T01:41:07;98565.59;;;8.74;86.38
65716;BME280;63484;52.054;8.518;2023-01-09T01:46:07;98563.75;;;8.56;88.41
65716;BME280;63484;52.054;8.518;2023-01-09T01:51:07;98563.31;;;8.51;88.48
65716;BME280;63484;52.054;8.518;2023-01-09T01:56:14;98563.81;;;8.44;88.29
65716;BME280;63484;52.054;8.518;2023-01-09T02:01:16;98558.81;;;8.32;90.41
65716;BME280;63484;52.054;8.518;2023-01-09T02:06:17;98558.72;;;8.22;91.32
65716;BME280;63484;52.054;8.518;2023-01-09T02:11:19;98547.91;;;8.27;90.96
65716;BME280;63484;52.054;8.518;2023-01-09T02:16:35;98546.59;;;8.12;90.70
65716;BME280;63484;52.054;8.518;2023-01-09T02:22:10;98548.19;;;8.03;91.85
65716;BME280;63484;52.054;8.518;2023-01-09T02:32:45;98532.31;;;7.95;91.82
65716;BME280;63484;52.054;8.518;2023-01-09T02:38:09;98538.25;;;7.97;92.42
65716;BME280;63484;52.054;8.518;2023-01-09T02:43:11;98532.81;;;7.89;92.01
65716;BME280;63484;52.054;8.518;2023-01-09T02:48:12;98532.19;;;7.76;92.82
65716;BME280;63484;52.054;8.518;2023-01-09T03:04:19;98527.59;;;7.69;93.76
65716;BME280;63484;52.054;8.518;2023-01-09T03:09:25;98526.06;;;7.66;93.55
65716;BME280;63484;52.054;8.518;2023-01-09T03:14:29;98523.72;;;7.63;93.85
65716;BME280;63484;52.054;8.518;2023-01-09T03:19:30;98523.25;;;7.58;94.13
65716;BME280;63484;52.054;8.518;2023-01-09T03:24:33;98524.78;;;7.61;94.40
65716;BME280;63484;52.054;8.518;2023-01-09T03:29:33;98521.47;;;7.59;94.09
65716;BME280;63484;52.054;8.518;2023-01-09T03:34:34;98521.72;;;7.56;94.46
65716;BME280;63484;52.054;8.518;2023-01-09T03:39:34;98529.06;;;7.62;94.99
65716;BME280;63484;52.054;8.518;2023-01-09T03:44:34;98530.41;;;7.56;94.76
65716;BME280;63484;52.054;8.518;2023-01-09T03:49:35;98544.06;;;7.60;94.91
65716;BME280;63484;52.054;8.518;2023-01-09T03:54:35;98549.41;;;7.58;94.92
65716;BME280;63484;52.054;8.518;2023-01-09T03:59:35;98543.00;;;7.72;93.88
65716;BME280;63484;52.054;8.518;2023-01-09T04:04:36;98555.91;;;7.64;94.31
65716;BME280;63484;52.054;8.518;2023-01-09T04:09:36;98572.16;;;7.67;93.82
65716;BME280;63484;52.054;8.518;2023-01-09T04:14:36;98579.31;;;7.65;94.69
65716;BME280;63484;52.054;8.518;2023-01-09T04:19:37;98583.28;;;7.60;95.04
65716;BME280;63484;52.054;8.518;2023-01-09T04:24:37;98599.78;;;7.60;94.95
65716;BME280;63484;52.054;8.518;2023-01-09T04:29:37;98615.47;;;7.60;94.57
65716;BME280;63484;52.054;8.518;2023-01-09T04:34:38;98614.25;;;7.64;94.85
65716;BME280;63484;52.054;8.518;2023-01-09T04:39:38;98625.22;;;7.58;94.28
65716;BME280;63484;52.054;8.518;2023-01-09T04:44:42;98633.28;;;7.66;92.21
65716;BME280;63484;52.054;8.518;2023-01-09T04:49:42;98639.94;;;7.59;92.57
65716;BME280;63484;52.054;8.518;2023-01-09T04:54:42;98634.78;;;7.48;91.74
65716;BME280;63484;52.054;8.518;2023-01-09T04:59:43;98647.59;;;7.51;92.01
65716;BME280;63484;52.054;8.518;2023-01-09T05:04:43;98650.78;;;7.55;92.15
65716;BME280;63484;52.054;8.518;2023-01-09T05:09:44;98659.00;;;7.50;92.36
65716;BME280;63484;52.054;8.518;2023-01-09T05:14:44;98665.59;;;7.34;92.00
65716;BME280;63484;52.054;8.518;2023-01-09T05:19:44;98672.34;;;7.36;92.33
65716;BME280;63484;52.054;8.518;2023-01-09T05:24:45;98680.88;;;7.38;92.27
65716;BME280;63484;52.054;8.518;2023-01-09T05:29:45;98674.25;;;7.34;91.55
65716;BME280;63484;52.054;8.518;2023-01-09T05:34:45;98683.28;;;7.30;91.50
65716;BME280;63484;52.054;8.518;2023-01-09T05:39:46;98692.44;;;7.25;93.03
65716;BME280;63484;52.054;8.518;2023-01-09T05:44:46;98700.25;;;7.25;92.22
65716;BME280;63484;52.054;8.518;2023-01-09T05:49:46;98702.66;;;7.28;92.29
65716;BME280;63484;52.054;8.518;2023-01-09T05:54:47;98719.63;;;7.33;91.28
65716;BME280;63484;52.054;8.518;2023-01-09T05:59:47;98727.09;;;7.38;91.36
65716;BME280;63484;52.054;8.518;2023-01-09T06:04:47;98727.84;;;7.29;92.05
65716;BME280;63484;52.054;8.518;2023-01-09T06:09:48;98717.50;;;7.27;91.63
65716;BME280;63484;52.054;8.518;2023-01-09T06:14:48;98717.72;;;7.35;91.41
65716;BME280;63484;52.054;8.518;2023-01-09T06:19:48;98727.69;;;7.41;91.23
65716;BME280;63484;52.054;8.518;2023-01-09T06:24:51;98737.09;;;7.22;91.90
65716;BME280;63484;52.054;8.518;2023-01-09T06:29:51;98726.75;;;7.20;92.47
65716;BME280;63484;52.054;8.518;2023-01-09T06:34:51;98721.06;;;7.15;92.57
65716;BME280;63484;52.054;8.518;2023-01-09T06:39:52;98747.19;;;6.93;93.57
65716;BME280;63484;52.054;8.518;2023-01-09T06:44:53;98756.94;;;7.02;94.17
65716;BME280;63484;52.054;8.518;2023-01-09T06:49:54;98765.47;;;7.15;92.63
65716;BME280;63484;52.054;8.518;2023-01-09T06:54:56;98766.94;;;7.08;92.54
65716;BME280;63484;52.054;8.518;2023-01-09T06:59:56;98778.53;;;7.15;90.91
65716;BME280;63484;52.054;8.518;2023-01-09T07:04:57;98781.63;;;7.20;90.67
65716;BME280;63484;52.054;8.518;2023-01-09T07:09:57;98777.38;;;7.19;90.50
65716;BME280;63484;52.054;8.518;2023-01-09T07:14:57;98782.25;;;7.13;89.81
65716;BME280;63484;52.054;8.518;2023-01-09T07:19:59;98784.25;;;7.09;89.67
65716;BME280;63484;52.054;8.518;2023-01-09T07:24:59;98789.72;;;7.17;88.77
65716;BME280;63484;52.054;8.518;2023-01-09T07:30:00;98805.16;;;7.20;87.77
65716;BME280;63484;52.054;8.518;2023-01-09T07:35:00;98796.72;;;7.17;87.07
65716;BME280;63484;52.054;8.518;2023-01-09T07:40:01;98802.66;;;7.19;87.16
65716;BME280;63484;52.054;8.518;2023-01-09T07:45:01;98799.22;;;7.18;88.16
65716;BME280;63484;52.054;8.518;2023-01-09T07:50:02;98800.66;;;7.22;87.10
65716;BME280;63484;52.054;8.518;2023-01-09T07:55:02;98798.28;;;7.30;86.81
65716;BME280;63484;52.054;8.518;2023-01-09T08:00:04;98798.50;;;7.27;86.23
65716;BME280;63484;52.054;8.518;2023-01-09T08:05:11;98805.16;;;7.31;85.91
65716;BME280;63484;52.054;8.518;2023-01-09T08:10:14;98812.78;;;7.34;85.31
65716;BME280;63484;52.054;8.518;2023-01-09T08:15:15;98811.56;;;7.38;85.68
65716;BME280;63484;52.054;8.518;2023-01-09T08:20:16;98813.00;;;7.42;84.34
65716;BME280;63484;52.054;8.518;2023-01-09T08:25:17;98820.25;;;7.39;84.80
65716;BME280;63484;52.054;8.518;2023-01-09T08:30:17;98817.66;;;7.39;85.39
65716;BME280;63484;52.054;8.518;2023-01-09T08:35:19;98816.09;;;7.36;85.01
65716;BME280;63484;52.054;8.518;2023-01-09T08:40:19;98817.78;;;7.26;86.26
65716;BME280;63484;52.054;8.518;2023-01-09T08:45:19;98829.16;;;7.25;86.59
65716;BME280;63484;52.054;8.518;2023-01-09T08:50:38;98832.00;;;7.22;87.34
65716;BME280;63484;52.054;8.518;2023-01-09T08:55:39;98826.91;;;7.32;87.04
65716;BME280;63484;52.054;8.518;2023-01-09T09:00:39;98830.59;;;7.40;85.77
65716;BME280;63484;52.054;8.518;2023-01-09T09:05:39;98832.72;;;7.46;86.13
65716;BME280;63484;52.054;8.518;2023-01-09T09:10:40;98820.47;;;7.69;85.79
65716;BME280;63484;52.054;8.518;2023-01-09T09:15:40;98830.78;;;7.81;83.73
65716;BME280;63484;52.054;8.518;2023-01-09T09:20:40;98821.91;;;7.73;84.13
65716;BME280;63484;52.054;8.518;2023-01-09T09:25:41;98822.25;;;7.79;83.06
65716;BME280;63484;52.054;8.518;2023-01-09T09:30:41;98814.56;;;8.09;83.03
65716;BME280;63484;52.054;8.518;2023-01-09T09:35:42;98821.47;;;8.10;81.37
65716;BME280;63484;52.054;8.518;2023-01-09T09:46:37;98823.38;;;8.08;80.97
65716;BME280;63484;52.054;8.518;2023-01-09T09:52:03;98817.03;;;8.11;80.54
65716;BME280;63484;52.054;8.518;2023-01-09T09:57:13;98823.59;;;8.16;80.24
65716;BME280;63484;52.054;8.518;2023-01-09T10:02:26;98819.53;;;8.12;80.29
65716;BME280;63484;52.054;8.518;2023-01-09T10:07:35;98814.28;;;8.23;80.63
65716;BME280;63484;52.054;8.518;2023-01-09T10:12:52;98814.53;;;8.31;81.49
65716;BME280;63484;52.054;8.518;2023-01-09T10:18:01;98822.22;;;8.44;79.62
65716;BME280;63484;52.054;8.518;2023-01-09T10:34:22;98822.94;;;8.46;81.94
65716;BME280;63484;52.054;8.518;2023-01-09T10:44:40;98809.53;;;8.60;81.35
65716;BME280;63484;52.054;8.518;2023-01-09T10:49:43;98803.44;;;8.60;79.96
65716;BME280;63484;52.054;8.518;2023-01-09T10:54:51;98813.50;;;8.75;79.14
65716;BME280;63484;52.054;8.518;2023-01-09T10:59:55;98797.47;;;8.69;79.45
65716;BME280;63484;52.054;8.518;2023-01-09T11:04:55;98802.56;;;8.70;80.14
65716;BME280;63484;52.054;8.518;2023-01-09T11:15:22;98812.41;;;8.78;79.50
65716;BME280;63484;52.054;8.518;2023-01-09T11:20:28;98820.31;;;8.87;79.14
65716;BME280;63484;52.054;8.518;2023-01-09T11:25:29;98810.22;;;8.83;79.40
65716;BME280;63484;52.054;8.518;2023-01-09T11:30:34;98819.25;;;8.90;77.91
65716;BME280;63484;52.054;8.518;2023-01-09T11:35:35;98819.88;;;8.82;78.70
65716;BME280;63484;52.054;8.518;2023-01-09T11:40:47;98817.38;;;8.81;77.62
65716;BME280;63484;52.054;8.518;2023-01-09T11:45:51;98829.63;;;8.60;79.00
65716;BME280;63484;52.054;8.518;2023-01-09T11:50:55;98830.34;;;8.62;79.78
65716;BME280;63484;52.054;8.518;2023-01-09T11:56:00;98837.09;;;8.64;79.15
65716;BME280;63484;52.054;8.518;2023-01-09T12:01:23;98835.06;;;8.68;78.13
65716;BME280;63484;52.054;8.518;2023-01-09T12:12:24;98830.22;;;8.84;78.36
65716;BME280;63484;52.054;8.518;2023-01-09T12:28:37;98854.69;;;8.53;82.16
65716;BME280;63484;52.054;8.518;2023-01-09T12:34:05;98864.28;;;8.31;85.50
65716;BME280;63484;52.054;8.518;2023-01-09T12:45:03;98865.72;;;8.13;87.54
65716;BME280;63484;52.054;8.518;2023-01-09T12:55:23;98865.38;;;8.50;85.81
65716;BME280;63484;52.054;8.518;2023-01-09T13:00:32;98879.56;;;8.47;85.84
65716;BME280;63484;52.054;8.518;2023-01-09T13:05:42;98877.31;;;8.43;85.99
65716;BME280;63484;52.054;8.518;2023-01-09T13:10:51;98881.81;;;8.52;83.79
65716;BME280;63484;52.054;8.518;2023-01-09T13:15:56;98893.03;;;8.74;83.64
65716;BME280;63484;52.054;8.518;2023-01-09T13:20:57;98893.75;;;8.76;84.01
65716;BME280;63484;52.054;8.518;2023-01-09T13:26:01;98892.41;;;8.82;84.99
65716;BME280;63484;52.054;8.518;2023-01-09T13:36:04;98893.28;;;8.92;82.00
65716;BME280;63484;52.054;8.518;2023-01-09T13:41:13;98892.09;;;8.75;80.60
65716;BME280;63484;52.054;8.518;2023-01-09T13:46:40;98879.38;;;8.60;81.57
65716;BME280;63484;52.054;8.518;2023-01-09T14:07:35;98905.38;;;8.52;79.39
65716;BME280;63484;52.054;8.518;2023-01-09T14:12:40;98931.59;;;8.40;79.82
65716;BME280;63484;52.054;8.518;2023-01-09T14:17:41;98928.75;;;8.32;80.46
65716;BME280;63484;52.054;8.518;2023-01-09T14:22:41;98948.59;;;8.46;81.24
65716;BME280;63484;52.054;8.518;2023-01-09T14:28:17;98967.25;;;8.64;80.84
65716;BME280;63484;52.054;8.518;2023-01-09T14:38:27;98986.06;;;8.69;80.76
65716;BME280;63484;52.054;8.518;2023-01-09T14:43:37;98996.66;;;8.67;80.95
65716;BME280;63484;52.054;8.518;2023-01-09T14:48:51;99017.97;;;8.52;81.40
65716;BME280;63484;52.054;8.518;2023-01-09T14:53:55;99022.16;;;8.43;82.04
65716;BME280;63484;52.054;8.518;2023-01-09T14:59:03;99039.31;;;8.36;82.62
65716;BME280;63484;52.054;8.518;2023-01-09T15:04:17;99050.34;;;8.28;82.54
65716;BME280;63484;52.054;8.518;2023-01-09T15:14:35;99090.69;;;8.26;84.43
65716;BME280;63484;52.054;8.518;2023-01-09T15:19:37;99099.13;;;8.18;83.96
65716;BME280;63484;52.054;8.518;2023-01-09T15:24:37;99112.22;;;8.18;84.26
65716;BME280;63484;52.054;8.518;2023-01-09T15:29:37;99125.00;;;7.99;84.64
65716;BME280;63484;52.054;8.518;2023-01-09T15:34:38;99140.94;;;8.07;85.04
65716;BME280;63484;52.054;8.518;2023-01-09T15:39:38;99136.41;;;7.98;84.33
65716;BME280;63484;52.054;8.518;2023-01-09T15:44:41;99123.53;;;7.84;85.40
65716;BME280;63484;52.054;8.518;2023-01-09T15:49:43;99136.94;;;7.80;85.96
65716;BME280;63484;52.054;8.518;2023-01-09T15:54:44;99145.13;;;7.75;85.45
65716;BME280;63484;52.054;8.518;2023-01-09T15:59:45;99143.09;;;7.68;85.65
65716;BME280;63484;52.054;8.518;2023-01-09T16:04:46;99155.44;;;7.66;85.51
65716;BME280;63484;52.054;8.518;2023-01-09T16:14:57;99174.34;;;7.69;86.11
65716;BME280;63484;52.054;8.518;2023-01-09T16:20:13;99186.25;;;7.73;86.00
65716;BME280;63484;52.054;8.518;2023-01-09T16:25:32;99191.16;;;7.78;86.22
65716;BME280;63484;52.054;8.518;2023-01-09T16:30:33;99205.28;;;7.75;86.41
65716;BME280;63484;52.054;8.518;2023-01-09T16:35:34;99218.38;;;7.75;86.68
65716;BME280;63484;52.054;8.518;2023-01-09T16:40:34;99230.63;;;7.75;86.17
65716;BME280;63484;52.054;8.518;2023-01-09T16:45:37;99234.34;;;7.83;86.11
65716;BME280;63484;52.054;8.518;2023-01-09T16:50:38;99239.75;;;7.69;86.67
65716;BME280;63484;52.054;8.518;2023-01-09T16:55:39;99251.88;;;7.70;87.71
65716;BME280;63484;52.054;8.518;2023-01-09T17:00:39;99255.88;;;7.63;87.35
65716;BME280;63484;52.054;8.518;2023-01-09T17:05:41;99269.47;;;7.56;86.49
65716;BME280;63484;52.054;8.518;2023-01-09T17:10:42;99280.34;;;7.62;86.92
65716;BME280;63484;52.054;8.518;2023-01-09T17:15:42;99295.66;;;7.43;88.67
65716;BME280;63484;52.054;8.518;2023-01-09T17:20:45;99301.94;;;7.53;87.19
65716;BME280;63484;52.054;8.518;2023-01-09T17:25:46;99315.84;;;7.54;87.05
65716;BME280;63484;52.054;8.518;2023-01-09T17:31:08;99323.16;;;7.36;88.12
65716;BME280;63484;52.054;8.518;2023-01-09T17:36:31;99341.66;;;7.46;86.48
65716;BME280;63484;52.054;8.518;2023-01-09T17:41:33;99352.88;;;7.35;87.17
65716;BME280;63484;52.054;8.518;2023-01-09T17:46:36;99360.09;;;7.32;86.25
65716;BME280;63484;52.054;8.518;2023-01-09T17:51:37;99362.59;;;7.33;86.31
65716;BME280;63484;52.054;8.518;2023-01-09T17:56:40;99372.00;;;7.23;86.62
65716;BME280;63484;52.054;8.518;2023-01-09T18:01:42;99381.84;;;7.20;87.60
65716;BME280;63484;52.054;8.518;2023-01-09T18:06:44;99398.97;;;7.24;87.48
65716;BME280;63484;52.054;8.518;2023-01-09T18:11:44;99415.94;;;7.18;86.77
65716;BME280;63484;52.054;8.518;2023-01-09T18:16:44;99426.38;;;7.18;86.47
65716;BME280;63484;52.054;8.518;2023-01-09T18:21:45;99437.53;;;7.20;87.04
65716;BME280;63484;52.054;8.518;2023-01-09T18:26:45;99444.16;;;7.26;87.90
65716;BME280;63484;52.054;8.518;2023-01-09T18:31:46;99469.22;;;7.28;87.64
65716;BME280;63484;52.054;8.518;2023-01-09T18:36:46;99481.06;;;7.34;88.64
65716;BME280;63484;52.054;8.518;2023-01-09T18:41:47;99479.03;;;7.25;87.89
65716;BME280;63484;52.054;8.518;2023-01-09T18:46:47;99489.44;;;7.26;88.12
65716;BME280;63484;52.054;8.518;2023-01-09T18:51:47;99501.44;;;7.29;88.55
65716;BME280;63484;52.054;8.518;2023-01-09T18:56:48;99516.50;;;7.25;88.64
65716;BME280;63484;52.054;8.518;2023-01-09T19:01:48;99521.72;;;7.25;89.58
65716;BME280;63484;52.054;8.518;2023-01-09T19:06:48;99525.69;;;7.18;89.21
65716;BME280;63484;52.054;8.518;2023-01-09T19:11:49;99527.25;;;7.21;89.38
65716;BME280;63484;52.054;8.518;2023-01-09T19:16:49;99542.69;;;7.11;90.22
65716;BME280;63484;52.054;8.518;2023-01-09T19:21:50;99539.13;;;7.12;89.70
65716;BME280;63484;52.054;8.518;2023-01-09T19:26:50;99546.44;;;7.07;90.06
65716;BME280;63484;52.054;8.518;2023-01-09T19:31:51;99559.16;;;6.99;90.58
65716;BME280;63484;52.054;8.518;2023-01-09T19:36:52;99563.56;;;6.84;91.40
65716;BME280;63484;52.054;8.518;2023-01-09T19:41:52;99576.53;;;6.86;91.23
65716;BME280;63484;52.054;8.518;2023-01-09T19:46:53;99581.66;;;6.87;91.34
65716;BME280;63484;52.054;8.518;2023-01-09T19:51:53;99596.16;;;6.79;91.06
65716;BME280;63484;52.054;8.518;2023-01-09T19:56:54;99605.09;;;6.75;91.05
65716;BME280;63484;52.054;8.518;2023-01-09T20:01:55;99618.06;;;6.90;90.31
65716;BME280;63484;52.054;8.518;2023-01-09T20:06:56;99623.56;;;6.86;89.95
65716;BME280;63484;52.054;8.518;2023-01-09T20:11:56;99638.56;;;6.82;90.24
65716;BME280;63484;52.054;8.518;2023-01-09T20:16:57;99640.38;;;6.82;90.93
65716;BME280;63484;52.054;8.518;2023-01-09T20:22:00;99667.50;;;6.93;90.69
65716;BME280;63484;52.054;8.518;2023-01-09T20:27:00;99659.75;;;6.92;90.72
65716;BME280;63484;52.054;8.518;2023-01-09T20:32:00;99666.47;;;6.96;90.45
65716;BME280;63484;52.054;8.518;2023-01-09T20:37:04;99672.25;;;7.01;89.90
65716;BME280;63484;52.054;8.518;2023-01-09T20:42:04;99690.34;;;7.04;89.41
65716;BME280;63484;52.054;8.518;2023-01-09T20:47:05;99697.16;;;7.07;89.17
65716;BME280;63484;52.054;8.518;2023-01-09T20:52:05;99710.41;;;6.89;90.04
65716;BME280;63484;52.054;8.518;2023-01-09T20:57:05;99706.31;;;6.85;90.30
65716;BME280;63484;52.054;8.518;2023-01-09T21:02:11;99708.91;;;6.99;90.01
65716;BME280;63484;52.054;8.518;2023-01-09T21:07:13;99718.25;;;6.89;90.22
65716;BME280;63484;52.054;8.518;2023-01-09T21:12:13;99724.78;;;6.96;89.60
65716;BME280;63484;52.054;8.518;2023-01-09T21:17:34;99728.31;;;6.95;89.69
65716;BME280;63484;52.054;8.518;2023-01-09T21:22:35;99749.88;;;6.85;89.88
65716;BME280;63484;52.054;8.518;2023-01-09T21:27:39;99763.59;;;6.88;89.35
65716;BME280;63484;52.054;8.518;2023-01-09T21:32:42;99772.38;;;7.01;88.91
65716;BME280;63484;52.054;8.518;2023-01-09T21:37:42;99777.69;;;7.00;89.23
65716;BME280;63484;52.054;8.518;2023-01-09T21:42:43;99786.44;;;6.99;89.54
65716;BME280;63484;52.054;8.518;2023-01-09T21:48:06;99797.09;;;6.96;89.51
65716;BME280;63484;52.054;8.518;2023-01-09T21:53:06;99798.78;;;7.11;89.29
65716;BME280;63484;52.054;8.518;2023-01-09T21:58:07;99816.31;;;6.95;90.43
65716;BME280;63484;52.054;8.518;2023-01-09T22:03:14;99823.78;;;6.87;92.12
65716;BME280;63484;52.054;8.518;2023-01-09T22:08:15;99828.81;;;6.76;92.84
65716;BME280;63484;52.054;8.518;2023-01-09T22:13:15;99827.66;;;6.80;92.46
65716;BME280;63484;52.054;8.518;2023-01-09T22:18:16;99840.63;;;6.81;93.18
65716;BME280;63484;52.054;8.518;2023-01-09T22:23:17;99846.03;;;6.78;93.77
65716;BME280;63484;52.054;8.518;2023-01-09T22:28:17;99857.34;;;6.79;93.54
65716;BME280;63484;52.054;8.518;2023-01-09T22:33:18;99873.75;;;6.81;93.61
65716;BME280;63484;52.054;8.518;2023-01-09T22:38:18;99883.09;;;6.85;93.02
65716;BME280;63484;52.054;8.518;2023-01-09T22:43:18;99894.97;;;6.90;92.42
65716;BME280;63484;52.054;8.518;2023-01-09T22:48:19;99897.31;;;6.95;92.11
65716;BME280;63484;52.054;8.518;2023-01-09T22:53:19;99902.25;;;6.85;92.43
65716;BME280;63484;52.054;8.518;2023-01-09T22:58:19;99914.63;;;6.82;93.32
65716;BME280;63484;52.054;8.518;2023-01-09T23:03:20;99924.91;;;6.85;93.01
65716;BME280;63484;52.054;8.518;2023-01-09T23:08:20;99942.44;;;6.83;93.38
65716;BME280;63484;52.054;8.518;2023-01-09T23:13:21;99933.81;;;6.81;93.44
65716;BME280;63484;52.054;8.518;2023-01-09T23:18:22;99949.00;;;6.90;93.21
65716;BME280;63484;52.054;8.518;2023-01-09T23:23:24;99959.81;;;6.84;92.47
65716;BME280;63484;52.054;8.518;2023-01-09T23:28:25;99971.56;;;6.91;92.14
65716;BME280;63484;52.054;8.518;2023-01-09T23:33:26;99972.59;;;6.88;93.24
65716;BME280;63484;52.054;8.518;2023-01-09T23:38:26;99985.44;;;6.77;93.49
65716;BME280;63484;52.054;8.518;2023-01-09T23:43:27;99996.44;;;6.82;92.81
65716;BME280;63484;52.054;8.518;2023-01-09T23:48:27;100006.63;;;6.71;93.40
65716;BME280;63484;52.054;8.518;2023-01-09T23:53:27;100010.00;;;6.73;92.94
65716;BME280;63484;52.054;8.518;2023-01-09T23:58:32;100013.75;;;6.69;92.61
